createdAt,value
2018-12-19T00:02:53.965Z,11.10
2018-12-19T00:07:05.833Z,11.10
2018-12-19T00:11:17.835Z,11.20
2018-12-19T00:15:29.845Z,11.30
2018-12-19T00:19:41.999Z,10.90
2018-12-19T00:23:54.091Z,10.40
2018-12-19T00:28:06.063Z,10.10
2018-12-19T00:32:18.248Z,9.90
2018-12-19T00:36:29.827Z,9.80
2018-12-19T00:40:41.594Z,9.80
2018-12-19T00:44:53.959Z,9.90
2018-12-19T00:49:06.936Z,9.90
2018-12-19T00:53:18.918Z,10.00
2018-12-19T00:57:30.844Z,10.10
2018-12-19T01:01:42.964Z,10.20
2018-12-19T01:05:55.039Z,10.20
2018-12-19T01:10:07.239Z,10.30
2018-12-19T01:14:19.260Z,10.20
2018-12-19T01:18:31.247Z,10.20
2018-12-19T01:22:43.364Z,10.20
2018-12-19T01:26:55.474Z,10.30
2018-12-19T01:31:07.559Z,10.30
2018-12-19T01:35:19.097Z,10.30
2018-12-19T01:39:30.812Z,10.40
2018-12-19T01:43:42.614Z,10.40
2018-12-19T01:47:54.670Z,10.40
2018-12-19T01:52:06.480Z,10.50
2018-12-19T01:56:18.939Z,10.50
2018-12-19T02:00:33.110Z,10.60
2018-12-19T02:04:44.803Z,10.60
2018-12-19T02:08:56.516Z,10.60
2018-12-19T02:13:08.454Z,10.60
2018-12-19T02:17:20.363Z,10.60
2018-12-19T02:21:32.488Z,10.70
2018-12-19T02:25:44.582Z,10.60
2018-12-19T02:29:56.884Z,10.50
2018-12-19T02:34:08.855Z,10.40
2018-12-19T02:38:21.055Z,10.50
2018-12-19T02:42:33.015Z,10.40
2018-12-19T02:46:45.094Z,10.40
2018-12-19T02:50:57.121Z,10.50
2018-12-19T02:55:08.760Z,10.40
2018-12-19T02:59:20.563Z,10.40
2018-12-19T03:03:32.421Z,10.30
2018-12-19T03:07:44.243Z,10.30
2018-12-19T03:11:56.272Z,10.30
2018-12-19T03:16:08.281Z,10.40
2018-12-19T03:20:20.344Z,10.40
2018-12-19T03:24:32.456Z,10.30
2018-12-19T03:28:44.463Z,10.30
2018-12-19T03:32:56.626Z,10.30
2018-12-19T03:37:08.596Z,10.30
2018-12-19T03:41:20.682Z,10.40
2018-12-19T03:45:32.835Z,10.40
2018-12-19T03:49:45.076Z,10.40
2018-12-19T03:53:57.129Z,10.40
2018-12-19T03:58:09.195Z,10.30
2018-12-19T04:02:21.331Z,10.30
2018-12-19T04:06:33.346Z,10.30
2018-12-19T04:10:45.460Z,10.30
2018-12-19T04:14:57.647Z,10.20
2018-12-19T04:19:09.230Z,10.30
2018-12-19T04:23:21.006Z,10.30
2018-12-19T04:27:33.102Z,10.30
2018-12-19T04:31:45.019Z,10.30
2018-12-19T04:35:56.801Z,10.30
2018-12-19T04:40:08.897Z,10.20
2018-12-19T04:44:20.891Z,10.20
2018-12-19T04:48:32.678Z,10.20
2018-12-19T04:52:44.786Z,10.20
2018-12-19T04:56:56.931Z,10.20
2018-12-19T05:01:09.000Z,10.20
2018-12-19T05:05:20.998Z,10.10
2018-12-19T05:09:32.677Z,10.20
2018-12-19T05:13:44.615Z,10.20
2018-12-19T05:17:56.463Z,10.20
2018-12-19T05:22:08.409Z,10.20
2018-12-19T05:26:20.323Z,10.20
2018-12-19T05:30:32.443Z,10.10
2018-12-19T05:34:44.579Z,10.10
2018-12-19T05:38:56.686Z,10.00
2018-12-19T05:43:08.662Z,10.10
2018-12-19T05:47:20.849Z,10.10
2018-12-19T05:51:32.863Z,10.20
2018-12-19T05:55:44.864Z,10.20
2018-12-19T05:59:56.482Z,10.30
2018-12-19T06:04:08.263Z,10.40
2018-12-19T06:08:20.072Z,10.40
2018-12-19T06:12:32.174Z,10.40
2018-12-19T06:16:44.175Z,10.40
2018-12-19T06:20:56.283Z,10.40
2018-12-19T06:25:08.396Z,10.40
2018-12-19T06:29:20.553Z,10.40
2018-12-19T06:33:32.702Z,10.40
2018-12-19T06:37:44.323Z,10.40
2018-12-19T06:41:56.161Z,10.50
2018-12-19T06:46:07.919Z,10.50
2018-12-19T06:50:19.923Z,10.50
2018-12-19T06:54:32.045Z,10.50
2018-12-19T06:58:44.040Z,10.10
2018-12-19T07:02:56.160Z,9.80
2018-12-19T07:07:08.344Z,9.70
2018-12-19T07:11:20.462Z,9.50
2018-12-19T07:15:32.623Z,9.30
2018-12-19T07:19:44.688Z,9.20
2018-12-19T07:23:56.819Z,9.30
2018-12-19T07:28:08.416Z,9.20
2018-12-19T07:32:20.230Z,9.30
2018-12-19T07:36:31.991Z,9.30
2018-12-19T07:40:45.743Z,9.40
2018-12-19T07:44:57.791Z,9.40
2018-12-19T07:49:09.547Z,9.50
2018-12-19T07:53:21.654Z,9.50
2018-12-19T07:57:33.723Z,9.50
2018-12-19T08:01:45.677Z,9.40
2018-12-19T08:05:57.743Z,9.30
2018-12-19T08:10:10.218Z,9.20
2018-12-19T08:14:21.993Z,9.10
2018-12-19T08:18:33.987Z,9.10
2018-12-19T08:22:46.025Z,9.00
2018-12-19T08:26:58.127Z,9.00
2018-12-19T08:31:10.318Z,8.90
2018-12-19T08:35:22.220Z,8.80
2018-12-19T08:39:34.162Z,8.80
2018-12-19T08:43:45.861Z,8.80
2018-12-19T08:47:57.579Z,8.80
2018-12-19T08:52:09.452Z,8.90
2018-12-19T08:56:21.428Z,9.00
2018-12-19T09:00:33.620Z,9.10
2018-12-19T09:04:45.705Z,9.10
2018-12-19T09:08:57.576Z,9.10
2018-12-19T09:13:09.708Z,9.10
2018-12-19T09:17:21.979Z,9.10
2018-12-19T09:21:34.507Z,9.10
2018-12-19T09:25:46.235Z,9.10
2018-12-19T09:29:58.039Z,9.10
2018-12-19T09:34:09.895Z,9.20
2018-12-19T09:38:21.913Z,9.20
2018-12-19T09:42:33.975Z,9.20
2018-12-19T09:46:46.198Z,9.30
2018-12-19T09:50:58.218Z,9.40
2018-12-19T09:55:10.256Z,9.40
2018-12-19T09:59:22.343Z,9.40
2018-12-19T10:03:34.347Z,9.50
2018-12-19T10:07:45.872Z,9.30
2018-12-19T10:11:57.494Z,9.20
2018-12-19T10:16:09.334Z,9.30
2018-12-19T10:20:21.352Z,9.30
2018-12-19T10:24:38.209Z,9.30
2018-12-19T10:28:50.075Z,9.30
2018-12-19T10:33:02.226Z,9.30
2018-12-19T10:37:14.294Z,9.30
2018-12-19T10:41:26.487Z,9.50
2018-12-19T10:45:38.509Z,9.70
2018-12-19T10:49:50.710Z,9.90
2018-12-19T10:54:02.811Z,10.00
2018-12-19T10:58:14.923Z,10.20
2018-12-19T11:02:27.430Z,10.50
2018-12-19T11:06:39.283Z,10.60
2018-12-19T11:10:51.243Z,10.70
2018-12-19T11:15:03.924Z,10.80
2018-12-19T11:19:15.622Z,10.80
2018-12-19T11:23:27.431Z,10.80
2018-12-19T11:27:39.195Z,10.80
2018-12-19T11:31:51.235Z,10.90
2018-12-19T11:36:03.098Z,10.90
2018-12-19T11:40:16.090Z,10.90
2018-12-19T11:44:27.883Z,10.90
2018-12-19T11:48:39.606Z,10.90
2018-12-19T11:52:51.660Z,11.00
2018-12-19T11:57:03.931Z,11.20
2018-12-19T12:01:15.956Z,11.40
2018-12-19T12:05:28.169Z,11.40
2018-12-19T12:09:40.347Z,11.30
2018-12-19T12:13:51.878Z,11.20
2018-12-19T12:18:03.607Z,11.10
2018-12-19T12:22:15.472Z,11.00
2018-12-19T12:26:28.134Z,11.20
2018-12-19T12:30:39.979Z,11.50
2018-12-19T12:34:52.528Z,11.60
2018-12-19T12:39:05.715Z,11.60
2018-12-19T12:43:17.743Z,11.50
2018-12-19T12:47:29.786Z,11.20
2018-12-19T12:51:41.852Z,11.00
2018-12-19T12:55:53.891Z,10.90
2018-12-19T13:00:07.031Z,10.90
2018-12-19T13:04:18.741Z,11.00
2018-12-19T13:08:30.753Z,11.10
2018-12-19T13:12:42.626Z,11.00
2018-12-19T13:16:55.799Z,11.00
2018-12-19T13:21:08.084Z,11.00
2018-12-19T13:25:20.189Z,11.20
2018-12-19T13:29:32.318Z,11.50
2018-12-19T13:33:44.393Z,11.70
2018-12-19T13:37:56.439Z,11.80
2018-12-19T13:42:08.401Z,11.80
2018-12-19T13:46:20.486Z,12.00
2018-12-19T13:50:32.689Z,12.00
2018-12-19T13:54:44.230Z,12.00
2018-12-19T13:58:55.987Z,12.00
2018-12-19T14:03:07.798Z,12.00
2018-12-19T14:07:22.668Z,12.00
2018-12-19T14:11:39.340Z,11.90
2018-12-19T14:15:54.547Z,11.80
2018-12-19T14:20:10.303Z,11.80
2018-12-19T14:24:25.196Z,11.80
2018-12-19T14:28:40.967Z,11.70
2018-12-19T14:32:55.908Z,11.70
2018-12-19T14:37:11.366Z,11.70
2018-12-19T14:41:26.192Z,11.60
2018-12-19T14:45:41.248Z,11.50
2018-12-19T14:49:57.832Z,11.40
2018-12-19T14:54:13.817Z,11.40
2018-12-19T14:58:28.827Z,11.30
2018-12-19T15:02:45.565Z,11.30
2018-12-19T15:06:57.470Z,11.30
2018-12-19T15:11:09.603Z,11.30
2018-12-19T15:15:23.030Z,11.30
2018-12-19T15:19:34.848Z,11.20
2018-12-19T15:23:46.760Z,11.00
2018-12-19T15:27:58.724Z,11.00
2018-12-19T15:32:10.890Z,10.90
2018-12-19T15:36:23.128Z,10.90
2018-12-19T15:40:35.039Z,11.20
2018-12-19T15:44:47.038Z,11.30
2018-12-19T15:48:58.938Z,11.30
2018-12-19T15:53:11.089Z,11.20
2018-12-19T15:57:23.216Z,11.10
2018-12-19T16:01:35.237Z,11.10
2018-12-19T16:05:47.190Z,11.00
2018-12-19T16:09:59.435Z,11.00
2018-12-19T16:14:11.432Z,11.00
2018-12-19T16:18:23.597Z,11.00
2018-12-19T16:22:35.646Z,11.00
2018-12-19T16:26:47.667Z,11.00
2018-12-19T16:30:59.723Z,10.90
2018-12-19T16:35:12.510Z,10.90
2018-12-19T16:39:26.060Z,10.90
2018-12-19T16:43:40.969Z,10.90
2018-12-19T16:47:53.399Z,10.90
2018-12-19T16:52:05.211Z,10.80
2018-12-19T16:56:17.146Z,10.80
2018-12-19T17:00:29.182Z,10.80
2018-12-19T17:04:41.192Z,10.80
2018-12-19T17:08:52.811Z,10.80
2018-12-19T17:13:04.536Z,10.80
2018-12-19T17:17:16.388Z,10.90
2018-12-19T17:21:28.404Z,10.90
2018-12-19T17:25:40.423Z,10.90
2018-12-19T17:29:52.850Z,10.90
2018-12-19T17:34:04.787Z,10.90
2018-12-19T17:38:16.934Z,10.80
2018-12-19T17:42:28.947Z,10.40
2018-12-19T17:46:40.956Z,10.30
2018-12-19T17:50:53.043Z,10.20
2018-12-19T17:55:04.603Z,10.20
2018-12-19T17:59:16.286Z,10.30
2018-12-19T18:03:28.161Z,10.30
2018-12-19T18:07:39.980Z,10.40
2018-12-19T18:11:51.957Z,10.50
2018-12-19T18:16:04.199Z,10.50
2018-12-19T18:20:16.212Z,10.60
2018-12-19T18:24:28.184Z,10.60
2018-12-19T18:28:40.206Z,10.60
2018-12-19T18:32:52.645Z,10.60
2018-12-19T18:37:04.654Z,10.60
2018-12-19T18:41:16.571Z,10.60
2018-12-19T18:45:28.527Z,10.60
2018-12-19T18:49:40.553Z,10.70
2018-12-19T18:53:52.641Z,10.70
2018-12-19T18:58:04.971Z,10.80
2018-12-19T19:02:16.927Z,10.70
2018-12-19T19:06:28.912Z,10.70
2018-12-19T19:10:41.270Z,10.80
2018-12-19T19:14:53.323Z,10.70
2018-12-19T19:19:05.326Z,10.70
2018-12-19T19:23:17.363Z,10.70
2018-12-19T19:27:29.335Z,10.60
2018-12-19T19:31:41.474Z,10.60
2018-12-19T19:35:53.706Z,10.70
2018-12-19T19:40:06.002Z,10.70
2018-12-19T19:44:19.702Z,10.70
2018-12-19T19:48:32.605Z,10.70
2018-12-19T19:52:44.967Z,10.60
2018-12-19T19:56:57.724Z,10.60
2018-12-19T20:01:10.370Z,10.60
2018-12-19T20:05:22.702Z,10.70
2018-12-19T20:09:35.324Z,10.60
2018-12-19T20:13:47.688Z,10.60
2018-12-19T20:18:00.283Z,10.60
2018-12-19T20:22:13.033Z,10.60
2018-12-19T20:26:26.262Z,10.50
2018-12-19T20:30:39.024Z,10.40
2018-12-19T20:34:52.067Z,10.30
2018-12-19T20:39:06.432Z,10.30
2018-12-19T20:43:18.950Z,10.30
2018-12-19T20:47:31.213Z,10.30
2018-12-19T20:51:43.456Z,10.20
2018-12-19T20:55:55.672Z,10.20
2018-12-19T21:00:11.477Z,10.20
2018-12-19T21:04:24.150Z,10.10
2018-12-19T21:08:36.416Z,10.10
2018-12-19T21:12:49.044Z,10.20
2018-12-19T21:17:06.433Z,10.10
2018-12-19T21:21:19.389Z,10.20
2018-12-19T21:25:32.723Z,10.10
2018-12-19T21:29:45.307Z,10.20
2018-12-19T21:33:57.911Z,10.20
2018-12-19T21:38:10.461Z,10.30
2018-12-19T21:42:23.272Z,10.30
2018-12-19T21:46:36.202Z,10.30
2018-12-19T21:50:48.639Z,10.30
2018-12-19T21:55:00.602Z,10.30
2018-12-19T21:59:12.619Z,10.30
2018-12-19T22:03:24.772Z,10.30
2018-12-19T22:07:36.879Z,10.40
2018-12-19T22:11:48.925Z,10.50
2018-12-19T22:16:02.001Z,10.50
2018-12-19T22:20:17.424Z,10.60
2018-12-19T22:24:29.606Z,10.60
2018-12-19T22:28:41.790Z,10.70
2018-12-19T22:32:53.923Z,10.70
2018-12-19T22:37:05.572Z,10.70
2018-12-19T22:41:17.368Z,10.80
2018-12-19T22:45:29.462Z,10.70
2018-12-19T22:49:41.335Z,10.70
2018-12-19T22:53:53.328Z,10.70
2018-12-19T22:58:05.466Z,10.70
2018-12-19T23:02:22.207Z,10.70
2018-12-19T23:06:34.059Z,10.60
2018-12-19T23:10:46.175Z,10.50
2018-12-19T23:15:02.703Z,10.40
2018-12-19T23:19:14.915Z,10.40
2018-12-19T23:23:26.977Z,10.40
2018-12-19T23:27:39.211Z,10.40
2018-12-19T23:31:51.510Z,10.30
2018-12-19T23:36:03.690Z,10.30
2018-12-19T23:40:15.607Z,10.40
2018-12-19T23:44:33.686Z,10.50
2018-12-19T23:48:45.751Z,10.50
2018-12-19T23:52:57.478Z,10.50
2018-12-19T23:57:09.229Z,10.40
